Terminal Aerodrome Forecast
Issued by NWS

Home | Current Version | Previous Version | Graphics & Text | Print | Product List | Glossary On
Versions: 1 2 3 4 5 6 7 8 9 10 11 12 13 14
000
FTUS43 KMPX 280500
TAFRWF
TAF
KRWF 280527Z 2806/2906 32011KT P6SM VCSH SCT020 OVC040
     FM280800 33007KT P6SM SCT025 BKN045
     FM281000 32005KT P6SM SCT050
     FM281500 33008KT P6SM SCT045
     FM290100 31004KT P6SM SKC=

USA.gov is the U.S. government's official web portal to all federal, state and local government web resources and services.